sensor_id;sensor_type;location;lat;lon;timestamp;temperature;humidity
16736;DHT22;17990;49.548;9.730;2024-03-23T00:55:29;8.00;99.90
16736;DHT22;17990;49.548;9.730;2024-03-23T00:57:56;8.00;99.90
16736;DHT22;17990;49.548;9.730;2024-03-23T01:00:22;8.00;99.90
16736;DHT22;17990;49.548;9.730;2024-03-23T01:02:49;8.10;99.90
16736;DHT22;17990;49.548;9.730;2024-03-23T01:05:15;8.00;99.90
16736;DHT22;17990;49.548;9.730;2024-03-23T01:07:41;8.00;99.90
16736;DHT22;17990;49.548;9.730;2024-03-23T01:10:08;8.00;99.90
16736;DHT22;17990;49.548;9.730;2024-03-23T01:12:36;7.90;99.90
16736;DHT22;17990;49.548;9.730;2024-03-23T01:15:02;7.90;99.90
16736;DHT22;17990;49.548;9.730;2024-03-23T01:17:29;8.00;99.90
16736;DHT22;17990;49.548;9.730;2024-03-23T01:19:55;8.10;99.90
16736;DHT22;17990;49.548;9.730;2024-03-23T01:22:22;8.10;99.90
16736;DHT22;17990;49.548;9.730;2024-03-23T01:24:48;8.10;99.90
16736;DHT22;17990;49.548;9.730;2024-03-23T01:27:15;8.10;99.90
16736;DHT22;17990;49.548;9.730;2024-03-23T01:29:42;8.10;99.90
16736;DHT22;17990;49.548;9.730;2024-03-23T01:32:09;8.10;99.90
16736;DHT22;17990;49.548;9.730;2024-03-23T01:34:35;8.00;99.90
16736;DHT22;17990;49.548;9.730;2024-03-23T01:37:02;8.00;99.90
16736;DHT22;17990;49.548;9.730;2024-03-23T01:39:28;8.10;99.90
16736;DHT22;17990;49.548;9.730;2024-03-23T01:41:55;8.10;99.90
16736;DHT22;17990;49.548;9.730;2024-03-23T01:44:21;8.10;99.90
16736;DHT22;17990;49.548;9.730;2024-03-23T01:46:49;8.10;99.90
16736;DHT22;17990;49.548;9.730;2024-03-23T01:49:15;8.10;99.90
16736;DHT22;17990;49.548;9.730;2024-03-23T01:51:42;8.10;99.90
16736;DHT22;17990;49.548;9.730;2024-03-23T01:54:09;8.20;99.90
16736;DHT22;17990;49.548;9.730;2024-03-23T01:56:36;8.20;99.90
16736;DHT22;17990;49.548;9.730;2024-03-23T01:59:02;8.20;99.90
16736;DHT22;17990;49.548;9.730;2024-03-23T02:01:29;8.30;99.90
16736;DHT22;17990;49.548;9.730;2024-03-23T02:03:56;8.30;99.90
16736;DHT22;17990;49.548;9.730;2024-03-23T02:06:24;8.40;99.90
16736;DHT22;17990;49.548;9.730;2024-03-23T02:08:50;8.40;99.90
16736;DHT22;17990;49.548;9.730;2024-03-23T02:11:17;8.50;99.90
16736;DHT22;17990;49.548;9.730;2024-03-23T02:13:43;8.50;99.90
16736;DHT22;17990;49.548;9.730;2024-03-23T02:16:10;8.50;99.90
16736;DHT22;17990;49.548;9.730;2024-03-23T02:18:36;8.60;99.90
16736;DHT22;17990;49.548;9.730;2024-03-23T02:21:05;8.60;99.90
16736;DHT22;17990;49.548;9.730;2024-03-23T02:23:32;8.60;99.90
16736;DHT22;17990;49.548;9.730;2024-03-23T02:25:59;8.60;99.90
16736;DHT22;17990;49.548;9.730;2024-03-23T02:28:25;8.50;99.90
16736;DHT22;17990;49.548;9.730;2024-03-23T02:30:52;8.40;99.90
16736;DHT22;17990;49.548;9.730;2024-03-23T02:33:18;8.40;99.90
16736;DHT22;17990;49.548;9.730;2024-03-23T02:35:46;8.40;99.90
16736;DHT22;17990;49.548;9.730;2024-03-23T02:38:12;8.40;99.90
16736;DHT22;17990;49.548;9.730;2024-03-23T02:40:41;8.40;99.90
16736;DHT22;17990;49.548;9.730;2024-03-23T02:43:06;8.40;99.90
16736;DHT22;17990;49.548;9.730;2024-03-23T02:45:33;8.40;99.90
16736;DHT22;17990;49.548;9.730;2024-03-23T02:47:59;8.50;99.90
16736;DHT22;17990;49.548;9.730;2024-03-23T02:50:26;8.50;99.90
16736;DHT22;17990;49.548;9.730;2024-03-23T02:52:52;8.60;99.90
16736;DHT22;17990;49.548;9.730;2024-03-23T02:55:19;8.60;99.90
16736;DHT22;17990;49.548;9.730;2024-03-23T02:57:46;8.70;99.90
16736;DHT22;17990;49.548;9.730;2024-03-23T03:00:13;8.70;99.90
16736;DHT22;17990;49.548;9.730;2024-03-23T03:02:39;8.80;99.90
16736;DHT22;17990;49.548;9.730;2024-03-23T03:05:06;8.80;99.90
16736;DHT22;17990;49.548;9.730;2024-03-23T03:07:34;9.00;99.90
16736;DHT22;17990;49.548;9.730;2024-03-23T03:10:02;9.00;99.90
16736;DHT22;17990;49.548;9.730;2024-03-23T03:12:30;9.00;99.90
16736;DHT22;17990;49.548;9.730;2024-03-23T03:14:59;9.00;99.90
16736;DHT22;17990;49.548;9.730;2024-03-23T03:17:24;9.10;99.90
16736;DHT22;17990;49.548;9.730;2024-03-23T03:19:51;9.10;99.90
16736;DHT22;17990;49.548;9.730;2024-03-23T03:22:21;9.20;99.90
16736;DHT22;17990;49.548;9.730;2024-03-23T03:24:48;9.20;99.90
16736;DHT22;17990;49.548;9.730;2024-03-23T03:27:14;9.20;99.90
16736;DHT22;17990;49.548;9.730;2024-03-23T03:29:41;9.10;99.90
16736;DHT22;17990;49.548;9.730;2024-03-23T03:32:08;9.10;99.90
16736;DHT22;17990;49.548;9.730;2024-03-23T03:34:35;9.10;99.90
16736;DHT22;17990;49.548;9.730;2024-03-23T03:37:01;9.10;99.90
16736;DHT22;17990;49.548;9.730;2024-03-23T03:39:27;9.00;99.90
16736;DHT22;17990;49.548;9.730;2024-03-23T03:41:53;9.00;99.90
16736;DHT22;17990;49.548;9.730;2024-03-23T03:44:20;9.00;99.90
16736;DHT22;17990;49.548;9.730;2024-03-23T03:46:46;9.00;99.90
16736;DHT22;17990;49.548;9.730;2024-03-23T03:49:15;9.00;99.90
16736;DHT22;17990;49.548;9.730;2024-03-23T03:51:41;9.10;99.90
16736;DHT22;17990;49.548;9.730;2024-03-23T03:54:07;9.20;99.90
16736;DHT22;17990;49.548;9.730;2024-03-23T03:56:33;9.30;99.90
16736;DHT22;17990;49.548;9.730;2024-03-23T03:59:00;9.20;99.90
16736;DHT22;17990;49.548;9.730;2024-03-23T04:01:26;9.30;99.90
16736;DHT22;17990;49.548;9.730;2024-03-23T04:03:53;9.30;99.90
16736;DHT22;17990;49.548;9.730;2024-03-23T04:06:20;9.40;99.90
16736;DHT22;17990;49.548;9.730;2024-03-23T04:08:47;9.50;99.90
16736;DHT22;17990;49.548;9.730;2024-03-23T04:11:13;9.50;99.90
16736;DHT22;17990;49.548;9.730;2024-03-23T04:13:40;9.50;99.90
16736;DHT22;17990;49.548;9.730;2024-03-23T04:16:07;9.60;99.90
16736;DHT22;17990;49.548;9.730;2024-03-23T04:18:34;9.60;99.90
16736;DHT22;17990;49.548;9.730;2024-03-23T04:21:01;9.60;99.90
16736;DHT22;17990;49.548;9.730;2024-03-23T04:23:29;9.50;99.90
16736;DHT22;17990;49.548;9.730;2024-03-23T04:25:56;9.50;99.90
16736;DHT22;17990;49.548;9.730;2024-03-23T04:28:23;9.50;99.90
16736;DHT22;17990;49.548;9.730;2024-03-23T04:30:49;9.50;99.90
16736;DHT22;17990;49.548;9.730;2024-03-23T04:33:16;9.60;99.90
16736;DHT22;17990;49.548;9.730;2024-03-23T04:35:42;9.70;99.90
16736;DHT22;17990;49.548;9.730;2024-03-23T04:38:09;9.70;99.90
16736;DHT22;17990;49.548;9.730;2024-03-23T04:40:37;9.70;99.90
16736;DHT22;17990;49.548;9.730;2024-03-23T04:43:04;9.80;99.90
16736;DHT22;17990;49.548;9.730;2024-03-23T04:45:31;9.70;99.90
16736;DHT22;17990;49.548;9.730;2024-03-23T04:47:58;9.70;99.90
16736;DHT22;17990;49.548;9.730;2024-03-23T04:50:25;9.70;99.90
16736;DHT22;17990;49.548;9.730;2024-03-23T04:52:52;9.70;99.90
16736;DHT22;17990;49.548;9.730;2024-03-23T04:55:19;9.70;99.90
16736;DHT22;17990;49.548;9.730;2024-03-23T04:57:49;9.80;99.90
16736;DHT22;17990;49.548;9.730;2024-03-23T05:00:15;9.90;99.90
16736;DHT22;17990;49.548;9.730;2024-03-23T05:02:44;9.90;99.90
16736;DHT22;17990;49.548;9.730;2024-03-23T05:05:10;10.00;99.90
16736;DHT22;17990;49.548;9.730;2024-03-23T05:07:37;10.00;99.90
16736;DHT22;17990;49.548;9.730;2024-03-23T05:10:04;10.00;99.90
16736;DHT22;17990;49.548;9.730;2024-03-23T05:12:31;10.10;99.90
16736;DHT22;17990;49.548;9.730;2024-03-23T05:14:58;10.10;99.90
16736;DHT22;17990;49.548;9.730;2024-03-23T05:17:25;10.20;99.90
16736;DHT22;17990;49.548;9.730;2024-03-23T05:19:51;10.30;99.90
16736;DHT22;17990;49.548;9.730;2024-03-23T05:22:18;10.30;99.90
16736;DHT22;17990;49.548;9.730;2024-03-23T05:24:45;10.30;99.90
16736;DHT22;17990;49.548;9.730;2024-03-23T05:27:12;10.30;99.90
16736;DHT22;17990;49.548;9.730;2024-03-23T05:29:38;10.30;99.90
16736;DHT22;17990;49.548;9.730;2024-03-23T05:32:06;10.40;99.90
16736;DHT22;17990;49.548;9.730;2024-03-23T05:34:32;10.50;99.90
16736;DHT22;17990;49.548;9.730;2024-03-23T05:37:02;10.60;99.90
16736;DHT22;17990;49.548;9.730;2024-03-23T05:39:28;10.60;99.90
16736;DHT22;17990;49.548;9.730;2024-03-23T05:41:55;10.70;99.90
16736;DHT22;17990;49.548;9.730;2024-03-23T05:44:21;10.70;99.90
16736;DHT22;17990;49.548;9.730;2024-03-23T05:46:48;10.70;99.90
16736;DHT22;17990;49.548;9.730;2024-03-23T05:49:15;10.80;99.90
16736;DHT22;17990;49.548;9.730;2024-03-23T05:51:42;10.80;99.90
16736;DHT22;17990;49.548;9.730;2024-03-23T05:54:08;10.80;99.90
16736;DHT22;17990;49.548;9.730;2024-03-23T05:56:35;10.80;99.90
16736;DHT22;17990;49.548;9.730;2024-03-23T05:59:01;10.90;99.90
16736;DHT22;17990;49.548;9.730;2024-03-23T06:01:29;10.90;99.90
16736;DHT22;17990;49.548;9.730;2024-03-23T06:03:58;11.00;99.90
16736;DHT22;17990;49.548;9.730;2024-03-23T06:06:28;11.00;99.90
16736;DHT22;17990;49.548;9.730;2024-03-23T06:08:55;11.00;99.90
16736;DHT22;17990;49.548;9.730;2024-03-23T06:11:22;11.00;99.90
16736;DHT22;17990;49.548;9.730;2024-03-23T06:13:48;11.10;99.90
16736;DHT22;17990;49.548;9.730;2024-03-23T06:16:15;11.10;99.90
16736;DHT22;17990;49.548;9.730;2024-03-23T06:18:41;11.10;99.90
16736;DHT22;17990;49.548;9.730;2024-03-23T06:21:13;11.10;99.90
16736;DHT22;17990;49.548;9.730;2024-03-23T06:23:40;11.20;99.90
16736;DHT22;17990;49.548;9.730;2024-03-23T06:26:07;11.20;99.90
16736;DHT22;17990;49.548;9.730;2024-03-23T06:28:34;11.20;99.90
16736;DHT22;17990;49.548;9.730;2024-03-23T06:31:01;11.20;99.90
16736;DHT22;17990;49.548;9.730;2024-03-23T06:33:27;11.10;99.90
16736;DHT22;17990;49.548;9.730;2024-03-23T06:35:54;11.10;99.90
16736;DHT22;17990;49.548;9.730;2024-03-23T06:38:20;11.10;99.90
16736;DHT22;17990;49.548;9.730;2024-03-23T06:40:48;11.10;99.90
16736;DHT22;17990;49.548;9.730;2024-03-23T06:43:16;11.10;99.90
16736;DHT22;17990;49.548;9.730;2024-03-23T06:45:43;11.10;99.90
16736;DHT22;17990;49.548;9.730;2024-03-23T06:48:09;11.10;99.90
16736;DHT22;17990;49.548;9.730;2024-03-23T06:50:36;11.00;99.90
16736;DHT22;17990;49.548;9.730;2024-03-23T06:53:02;10.90;99.90
16736;DHT22;17990;49.548;9.730;2024-03-23T06:55:31;10.70;99.90
16736;DHT22;17990;49.548;9.730;2024-03-23T06:57:58;10.50;99.90
16736;DHT22;17990;49.548;9.730;2024-03-23T07:00:25;10.30;99.90
16736;DHT22;17990;49.548;9.730;2024-03-23T07:02:51;10.00;99.90
16736;DHT22;17990;49.548;9.730;2024-03-23T07:05:18;9.80;99.90
16736;DHT22;17990;49.548;9.730;2024-03-23T07:07:44;9.60;99.90
16736;DHT22;17990;49.548;9.730;2024-03-23T07:10:11;9.40;99.90
16736;DHT22;17990;49.548;9.730;2024-03-23T07:12:37;9.30;99.90
16736;DHT22;17990;49.548;9.730;2024-03-23T07:15:06;9.20;99.90
16736;DHT22;17990;49.548;9.730;2024-03-23T07:17:33;9.10;99.90
16736;DHT22;17990;49.548;9.730;2024-03-23T07:20:00;9.00;99.90
16736;DHT22;17990;49.548;9.730;2024-03-23T07:22:29;8.90;99.90
16736;DHT22;17990;49.548;9.730;2024-03-23T07:24:56;8.90;99.90
16736;DHT22;17990;49.548;9.730;2024-03-23T07:27:21;8.90;99.90
16736;DHT22;17990;49.548;9.730;2024-03-23T07:29:49;8.90;99.90
16736;DHT22;17990;49.548;9.730;2024-03-23T07:32:16;8.80;99.90
16736;DHT22;17990;49.548;9.730;2024-03-23T07:34:43;8.70;99.90
16736;DHT22;17990;49.548;9.730;2024-03-23T07:37:09;8.60;99.90
16736;DHT22;17990;49.548;9.730;2024-03-23T07:39:36;8.60;99.90
16736;DHT22;17990;49.548;9.730;2024-03-23T07:42:03;8.60;99.90
16736;DHT22;17990;49.548;9.730;2024-03-23T07:44:30;8.60;99.90
16736;DHT22;17990;49.548;9.730;2024-03-23T07:46:55;8.70;99.90
16736;DHT22;17990;49.548;9.730;2024-03-23T07:49:24;8.80;99.90
16736;DHT22;17990;49.548;9.730;2024-03-23T07:51:49;8.80;99.90
16736;DHT22;17990;49.548;9.730;2024-03-23T07:54:16;8.80;99.90
16736;DHT22;17990;49.548;9.730;2024-03-23T07:56:42;8.80;99.90
16736;DHT22;17990;49.548;9.730;2024-03-23T07:59:09;8.80;99.90
16736;DHT22;17990;49.548;9.730;2024-03-23T08:01:36;8.70;99.90
16736;DHT22;17990;49.548;9.730;2024-03-23T08:04:03;8.80;99.90
16736;DHT22;17990;49.548;9.730;2024-03-23T08:06:30;9.10;99.90
16736;DHT22;17990;49.548;9.730;2024-03-23T08:08:58;9.50;99.90
16736;DHT22;17990;49.548;9.730;2024-03-23T08:11:27;9.90;99.90
16736;DHT22;17990;49.548;9.730;2024-03-23T08:13:56;10.00;99.90
16736;DHT22;17990;49.548;9.730;2024-03-23T08:16:22;10.00;99.90
16736;DHT22;17990;49.548;9.730;2024-03-23T08:18:51;10.00;99.90
16736;DHT22;17990;49.548;9.730;2024-03-23T08:21:17;9.80;99.90
16736;DHT22;17990;49.548;9.730;2024-03-23T08:23:46;9.70;99.90
16736;DHT22;17990;49.548;9.730;2024-03-23T08:26:14;9.70;99.90
16736;DHT22;17990;49.548;9.730;2024-03-23T08:28:43;9.60;99.90
16736;DHT22;17990;49.548;9.730;2024-03-23T08:31:10;9.70;99.90
16736;DHT22;17990;49.548;9.730;2024-03-23T08:33:38;9.80;99.90
16736;DHT22;17990;49.548;9.730;2024-03-23T08:36:06;9.70;99.90
16736;DHT22;17990;49.548;9.730;2024-03-23T08:38:34;9.70;99.90
16736;DHT22;17990;49.548;9.730;2024-03-23T08:41:03;9.60;99.90
16736;DHT22;17990;49.548;9.730;2024-03-23T08:43:32;9.70;99.90
16736;DHT22;17990;49.548;9.730;2024-03-23T08:46:04;9.70;99.90
16736;DHT22;17990;49.548;9.730;2024-03-23T08:48:32;9.70;99.90
16736;DHT22;17990;49.548;9.730;2024-03-23T08:51:00;9.80;99.90
16736;DHT22;17990;49.548;9.730;2024-03-23T08:53:28;10.00;99.90
16736;DHT22;17990;49.548;9.730;2024-03-23T08:55:54;10.10;99.90
16736;DHT22;17990;49.548;9.730;2024-03-23T08:58:24;10.10;99.90
16736;DHT22;17990;49.548;9.730;2024-03-23T09:00:50;10.20;99.90
16736;DHT22;17990;49.548;9.730;2024-03-23T09:03:17;10.20;99.90
16736;DHT22;17990;49.548;9.730;2024-03-23T09:05:43;10.30;99.90
16736;DHT22;17990;49.548;9.730;2024-03-23T09:08:10;10.20;99.90
16736;DHT22;17990;49.548;9.730;2024-03-23T09:10:38;10.10;99.90
16736;DHT22;17990;49.548;9.730;2024-03-23T09:13:05;10.00;99.90
16736;DHT22;17990;49.548;9.730;2024-03-23T09:15:34;9.90;99.90
16736;DHT22;17990;49.548;9.730;2024-03-23T09:18:03;9.90;99.90
16736;DHT22;17990;49.548;9.730;2024-03-23T09:20:29;9.80;99.90
16736;DHT22;17990;49.548;9.730;2024-03-23T09:22:59;9.90;99.90
16736;DHT22;17990;49.548;9.730;2024-03-23T09:25:25;10.00;99.90
16736;DHT22;17990;49.548;9.730;2024-03-23T09:27:52;10.10;99.90
16736;DHT22;17990;49.548;9.730;2024-03-23T09:30:18;10.40;99.90
16736;DHT22;17990;49.548;9.730;2024-03-23T09:32:46;10.70;99.90
16736;DHT22;17990;49.548;9.730;2024-03-23T09:35:12;10.70;99.90
16736;DHT22;17990;49.548;9.730;2024-03-23T09:37:39;10.70;99.90
16736;DHT22;17990;49.548;9.730;2024-03-23T09:40:07;10.80;99.90
16736;DHT22;17990;49.548;9.730;2024-03-23T09:42:36;11.10;99.90
16736;DHT22;17990;49.548;9.730;2024-03-23T09:45:02;11.10;99.90
16736;DHT22;17990;49.548;9.730;2024-03-23T09:47:32;11.20;99.90
16736;DHT22;17990;49.548;9.730;2024-03-23T09:50:00;11.00;99.90
16736;DHT22;17990;49.548;9.730;2024-03-23T09:52:27;10.80;99.90
16736;DHT22;17990;49.548;9.730;2024-03-23T09:54:53;10.70;99.90
16736;DHT22;17990;49.548;9.730;2024-03-23T09:57:20;10.60;99.90
16736;DHT22;17990;49.548;9.730;2024-03-23T09:59:46;11.10;99.90
16736;DHT22;17990;49.548;9.730;2024-03-23T10:02:13;11.50;99.90
16736;DHT22;17990;49.548;9.730;2024-03-23T10:04:42;11.90;99.90
16736;DHT22;17990;49.548;9.730;2024-03-23T10:07:15;12.30;99.90
16736;DHT22;17990;49.548;9.730;2024-03-23T10:09:42;12.50;99.90
16736;DHT22;17990;49.548;9.730;2024-03-23T10:12:10;12.60;99.90
16736;DHT22;17990;49.548;9.730;2024-03-23T10:14:37;12.80;99.90
16736;DHT22;17990;49.548;9.730;2024-03-23T10:17:12;13.00;99.90
16736;DHT22;17990;49.548;9.730;2024-03-23T10:19:40;13.20;99.90
16736;DHT22;17990;49.548;9.730;2024-03-23T10:22:08;13.20;99.90
16736;DHT22;17990;49.548;9.730;2024-03-23T10:24:36;13.20;99.90
16736;DHT22;17990;49.548;9.730;2024-03-23T10:27:03;13.20;99.90
16736;DHT22;17990;49.548;9.730;2024-03-23T10:29:29;13.20;99.90
16736;DHT22;17990;49.548;9.730;2024-03-23T10:32:07;13.20;99.90
16736;DHT22;17990;49.548;9.730;2024-03-23T10:34:34;13.10;99.90
16736;DHT22;17990;49.548;9.730;2024-03-23T10:37:02;13.10;99.90
16736;DHT22;17990;49.548;9.730;2024-03-23T10:39:31;12.90;99.90
16736;DHT22;17990;49.548;9.730;2024-03-23T10:42:02;12.90;99.90
16736;DHT22;17990;49.548;9.730;2024-03-23T10:44:30;13.10;99.90
16736;DHT22;17990;49.548;9.730;2024-03-23T10:46:57;13.30;99.90
16736;DHT22;17990;49.548;9.730;2024-03-23T10:49:28;13.20;99.90
16736;DHT22;17990;49.548;9.730;2024-03-23T10:51:59;13.00;99.90
16736;DHT22;17990;49.548;9.730;2024-03-23T10:54:26;12.50;99.90
16736;DHT22;17990;49.548;9.730;2024-03-23T10:56:57;12.30;99.90
16736;DHT22;17990;49.548;9.730;2024-03-23T10:59:27;12.40;99.90
16736;DHT22;17990;49.548;9.730;2024-03-23T11:01:56;12.50;99.90
16736;DHT22;17990;49.548;9.730;2024-03-23T11:04:32;12.60;99.90
16736;DHT22;17990;49.548;9.730;2024-03-23T11:07:00;12.80;99.90
16736;DHT22;17990;49.548;9.730;2024-03-23T11:09:40;12.90;99.90
16736;DHT22;17990;49.548;9.730;2024-03-23T11:12:28;13.10;99.90
16736;DHT22;17990;49.548;9.730;2024-03-23T11:15:03;13.00;99.90
16736;DHT22;17990;49.548;9.730;2024-03-23T11:17:29;13.00;99.90
16736;DHT22;17990;49.548;9.730;2024-03-23T11:19:57;12.80;99.90
16736;DHT22;17990;49.548;9.730;2024-03-23T11:22:41;12.80;99.90
16736;DHT22;17990;49.548;9.730;2024-03-23T11:25:18;12.70;99.90
16736;DHT22;17990;49.548;9.730;2024-03-23T11:27:49;12.30;99.90
16736;DHT22;17990;49.548;9.730;2024-03-23T11:30:18;12.10;99.90
16736;DHT22;17990;49.548;9.730;2024-03-23T11:32:46;12.10;99.90
16736;DHT22;17990;49.548;9.730;2024-03-23T11:35:25;12.30;99.90
16736;DHT22;17990;49.548;9.730;2024-03-23T11:38:06;12.80;99.90
16736;DHT22;17990;49.548;9.730;2024-03-23T11:40:33;13.30;99.90
16736;DHT22;17990;49.548;9.730;2024-03-23T11:43:03;13.70;99.90
16736;DHT22;17990;49.548;9.730;2024-03-23T11:45:34;13.90;99.90
16736;DHT22;17990;49.548;9.730;2024-03-23T11:48:06;14.00;99.90
16736;DHT22;17990;49.548;9.730;2024-03-23T11:50:33;13.90;99.90
16736;DHT22;17990;49.548;9.730;2024-03-23T11:53:14;14.00;99.90
16736;DHT22;17990;49.548;9.730;2024-03-23T11:55:47;14.20;99.90
16736;DHT22;17990;49.548;9.730;2024-03-23T11:58:17;14.00;99.90
16736;DHT22;17990;49.548;9.730;2024-03-23T12:00:50;14.10;99.90
16736;DHT22;17990;49.548;9.730;2024-03-23T12:03:18;14.10;99.90
16736;DHT22;17990;49.548;9.730;2024-03-23T12:05:49;14.30;99.90
16736;DHT22;17990;49.548;9.730;2024-03-23T12:08:20;14.20;99.90
16736;DHT22;17990;49.548;9.730;2024-03-23T12:10:49;14.10;99.90
16736;DHT22;17990;49.548;9.730;2024-03-23T12:13:19;14.10;99.90
16736;DHT22;17990;49.548;9.730;2024-03-23T12:15:46;13.80;99.90
16736;DHT22;17990;49.548;9.730;2024-03-23T12:18:16;13.60;99.90
16736;DHT22;17990;49.548;9.730;2024-03-23T12:20:42;13.40;99.90
16736;DHT22;17990;49.548;9.730;2024-03-23T12:23:10;13.30;99.90
16736;DHT22;17990;49.548;9.730;2024-03-23T12:25:37;13.00;99.90
16736;DHT22;17990;49.548;9.730;2024-03-23T12:28:05;12.90;99.90
16736;DHT22;17990;49.548;9.730;2024-03-23T12:30:34;12.90;99.90
16736;DHT22;17990;49.548;9.730;2024-03-23T12:33:01;13.00;99.90
16736;DHT22;17990;49.548;9.730;2024-03-23T12:35:28;13.30;99.90
16736;DHT22;17990;49.548;9.730;2024-03-23T12:37:55;13.60;99.90
16736;DHT22;17990;49.548;9.730;2024-03-23T12:40:21;13.90;99.90
16736;DHT22;17990;49.548;9.730;2024-03-23T12:42:48;14.10;99.90
16736;DHT22;17990;49.548;9.730;2024-03-23T12:45:14;14.00;99.00
16736;DHT22;17990;49.548;9.730;2024-03-23T12:47:43;14.10;99.40
16736;DHT22;17990;49.548;9.730;2024-03-23T12:50:09;14.40;97.60
16736;DHT22;17990;49.548;9.730;2024-03-23T12:52:36;14.60;98.30
16736;DHT22;17990;49.548;9.730;2024-03-23T12:55:02;14.70;97.80
16736;DHT22;17990;49.548;9.730;2024-03-23T12:57:31;14.70;99.90
16736;DHT22;17990;49.548;9.730;2024-03-23T12:59:57;13.90;99.90
16736;DHT22;17990;49.548;9.730;2024-03-23T13:02:24;13.40;99.90
16736;DHT22;17990;49.548;9.730;2024-03-23T13:04:52;13.00;99.90
16736;DHT22;17990;49.548;9.730;2024-03-23T13:07:20;12.50;99.90
16736;DHT22;17990;49.548;9.730;2024-03-23T13:09:47;12.00;99.90
16736;DHT22;17990;49.548;9.730;2024-03-23T13:12:16;11.50;99.90
16736;DHT22;17990;49.548;9.730;2024-03-23T13:14:44;11.20;99.90
16736;DHT22;17990;49.548;9.730;2024-03-23T13:17:11;11.30;99.90
16736;DHT22;17990;49.548;9.730;2024-03-23T13:19:37;11.60;99.90
16736;DHT22;17990;49.548;9.730;2024-03-23T13:22:05;11.90;99.90
16736;DHT22;17990;49.548;9.730;2024-03-23T13:24:31;12.00;99.90
16736;DHT22;17990;49.548;9.730;2024-03-23T13:26:58;12.10;99.90
16736;DHT22;17990;49.548;9.730;2024-03-23T13:29:24;12.30;99.90
16736;DHT22;17990;49.548;9.730;2024-03-23T13:31:52;12.60;99.90
16736;DHT22;17990;49.548;9.730;2024-03-23T13:34:18;12.70;99.90
16736;DHT22;17990;49.548;9.730;2024-03-23T13:36:46;12.70;99.90
16736;DHT22;17990;49.548;9.730;2024-03-23T13:39:14;12.60;99.90
16736;DHT22;17990;49.548;9.730;2024-03-23T13:41:42;12.40;99.90
16736;DHT22;17990;49.548;9.730;2024-03-23T13:44:11;11.70;99.90
16736;DHT22;17990;49.548;9.730;2024-03-23T13:46:39;11.30;99.90
16736;DHT22;17990;49.548;9.730;2024-03-23T13:49:05;11.00;99.90
16736;DHT22;17990;49.548;9.730;2024-03-23T13:51:32;11.00;99.90
16736;DHT22;17990;49.548;9.730;2024-03-23T13:53:58;11.20;99.90
16736;DHT22;17990;49.548;9.730;2024-03-23T13:56:28;11.50;99.90
16736;DHT22;17990;49.548;9.730;2024-03-23T13:58:54;11.30;99.90
16736;DHT22;17990;49.548;9.730;2024-03-23T14:01:22;10.90;99.90
16736;DHT22;17990;49.548;9.730;2024-03-23T14:03:48;10.70;99.90
16736;DHT22;17990;49.548;9.730;2024-03-23T14:06:15;11.00;99.90
16736;DHT22;17990;49.548;9.730;2024-03-23T14:08:41;11.40;99.90
16736;DHT22;17990;49.548;9.730;2024-03-23T14:11:09;11.60;99.90
16736;DHT22;17990;49.548;9.730;2024-03-23T14:13:37;11.50;99.90
16736;DHT22;17990;49.548;9.730;2024-03-23T14:16:05;11.50;99.90
16736;DHT22;17990;49.548;9.730;2024-03-23T14:18:31;11.50;99.90
16736;DHT22;17990;49.548;9.730;2024-03-23T14:20:59;11.70;99.90
16736;DHT22;17990;49.548;9.730;2024-03-23T14:23:26;12.00;99.90
16736;DHT22;17990;49.548;9.730;2024-03-23T14:25:53;12.20;99.90
16736;DHT22;17990;49.548;9.730;2024-03-23T14:28:20;11.90;99.90
16736;DHT22;17990;49.548;9.730;2024-03-23T14:30:49;11.60;99.90
16736;DHT22;17990;49.548;9.730;2024-03-23T14:33:15;11.40;99.90
16736;DHT22;17990;49.548;9.730;2024-03-23T14:35:43;11.60;99.90
16736;DHT22;17990;49.548;9.730;2024-03-23T14:38:09;12.40;99.90
16736;DHT22;17990;49.548;9.730;2024-03-23T14:40:36;12.90;99.90
16736;DHT22;17990;49.548;9.730;2024-03-23T14:43:02;12.70;99.90
16736;DHT22;17990;49.548;9.730;2024-03-23T14:45:29;12.50;99.90
16736;DHT22;17990;49.548;9.730;2024-03-23T14:47:56;12.10;99.90
16736;DHT22;17990;49.548;9.730;2024-03-23T14:50:24;11.80;99.90
16736;DHT22;17990;49.548;9.730;2024-03-23T14:52:50;11.50;99.90
16736;DHT22;17990;49.548;9.730;2024-03-23T14:55:17;11.30;99.90
16736;DHT22;17990;49.548;9.730;2024-03-23T14:57:44;11.20;99.90
16736;DHT22;17990;49.548;9.730;2024-03-23T15:00:11;11.10;99.90
16736;DHT22;17990;49.548;9.730;2024-03-23T15:02:37;11.20;99.90
16736;DHT22;17990;49.548;9.730;2024-03-23T15:05:06;11.10;99.90
16736;DHT22;17990;49.548;9.730;2024-03-23T15:07:35;11.10;99.90
16736;DHT22;17990;49.548;9.730;2024-03-23T15:10:03;11.00;99.90
16736;DHT22;17990;49.548;9.730;2024-03-23T15:12:30;11.00;99.90
16736;DHT22;17990;49.548;9.730;2024-03-23T15:14:58;10.90;99.90
16736;DHT22;17990;49.548;9.730;2024-03-23T15:17:24;10.90;99.90
16736;DHT22;17990;49.548;9.730;2024-03-23T15:19:51;10.80;99.90
16736;DHT22;17990;49.548;9.730;2024-03-23T15:22:19;10.80;99.90
16736;DHT22;17990;49.548;9.730;2024-03-23T15:24:47;10.70;99.90
16736;DHT22;17990;49.548;9.730;2024-03-23T15:27:13;10.70;99.90
16736;DHT22;17990;49.548;9.730;2024-03-23T15:29:39;10.80;99.90
16736;DHT22;17990;49.548;9.730;2024-03-23T15:32:07;10.60;99.90
16736;DHT22;17990;49.548;9.730;2024-03-23T15:34:34;10.40;99.90
16736;DHT22;17990;49.548;9.730;2024-03-23T15:37:00;10.40;99.90
16736;DHT22;17990;49.548;9.730;2024-03-23T15:39:28;10.60;99.90
16736;DHT22;17990;49.548;9.730;2024-03-23T15:41:54;10.70;99.90
16736;DHT22;17990;49.548;9.730;2024-03-23T15:44:21;10.80;99.90
16736;DHT22;17990;49.548;9.730;2024-03-23T15:46:47;10.70;99.90
16736;DHT22;17990;49.548;9.730;2024-03-23T15:49:14;10.70;99.90
16736;DHT22;17990;49.548;9.730;2024-03-23T15:51:40;10.60;99.90
16736;DHT22;17990;49.548;9.730;2024-03-23T15:54:09;10.80;99.90
16736;DHT22;17990;49.548;9.730;2024-03-23T15:56:36;10.90;99.90
16736;DHT22;17990;49.548;9.730;2024-03-23T15:59:03;10.90;99.90
16736;DHT22;17990;49.548;9.730;2024-03-23T16:01:31;10.80;99.90
16736;DHT22;17990;49.548;9.730;2024-03-23T16:03:59;10.40;99.90
16736;DHT22;17990;49.548;9.730;2024-03-23T16:06:25;10.20;99.90
16736;DHT22;17990;49.548;9.730;2024-03-23T16:08:52;10.10;99.90
16736;DHT22;17990;49.548;9.730;2024-03-23T16:11:19;10.10;99.90
16736;DHT22;17990;49.548;9.730;2024-03-23T16:13:47;10.10;99.90
16736;DHT22;17990;49.548;9.730;2024-03-23T16:16:14;10.10;99.90
16736;DHT22;17990;49.548;9.730;2024-03-23T16:18:41;10.00;99.90
16736;DHT22;17990;49.548;9.730;2024-03-23T16:21:09;10.00;99.90
16736;DHT22;17990;49.548;9.730;2024-03-23T16:23:35;9.90;99.90
16736;DHT22;17990;49.548;9.730;2024-03-23T16:26:04;9.90;99.90
16736;DHT22;17990;49.548;9.730;2024-03-23T16:28:31;9.90;99.90
16736;DHT22;17990;49.548;9.730;2024-03-23T16:31:01;9.90;99.90
16736;DHT22;17990;49.548;9.730;2024-03-23T16:33:29;9.90;99.90